createdAt,value
2022-10-01T00:01:19.786Z,100.00
2022-10-01T00:03:47.933Z,100.00
2022-10-01T00:06:17.756Z,100.00
2022-10-01T00:08:49.266Z,100.00
2022-10-01T00:11:22.291Z,100.00
2022-10-01T00:13:50.224Z,100.00
2022-10-01T00:16:23.143Z,100.00
2022-10-01T00:18:50.509Z,100.00
2022-10-01T00:21:21.653Z,100.00
2022-10-01T00:23:55.300Z,100.00
2022-10-01T00:26:27.160Z,100.00
2022-10-01T00:28:56.148Z,100.00
2022-10-01T00:31:23.398Z,100.00
2022-10-01T00:33:53.115Z,100.00
2022-10-01T00:36:20.035Z,100.00
2022-10-01T00:38:48.262Z,100.00
2022-10-01T00:41:16.174Z,100.00
2022-10-01T00:43:45.370Z,100.00
2022-10-01T00:46:28.281Z,100.00
2022-10-01T00:48:58.649Z,100.00
2022-10-01T00:51:29.659Z,100.00
2022-10-01T00:54:02.893Z,100.00
2022-10-01T00:56:31.206Z,100.00
2022-10-01T00:58:58.957Z,100.00
2022-10-01T01:01:26.665Z,100.00
2022-10-01T01:03:53.821Z,100.00
2022-10-01T01:06:20.797Z,100.00
2022-10-01T01:08:53.501Z,100.00
2022-10-01T01:11:38.768Z,100.00
2022-10-01T01:14:15.937Z,100.00
2022-10-01T01:17:00.586Z,100.00
2022-10-01T01:19:45.028Z,100.00
2022-10-01T01:22:14.143Z,100.00
2022-10-01T01:24:49.305Z,100.00
2022-10-01T01:27:35.265Z,100.00
2022-10-01T01:30:15.042Z,100.00
2022-10-01T01:32:55.626Z,100.00
2022-10-01T01:35:31.577Z,100.00
2022-10-01T01:38:07.217Z,100.00
2022-10-01T01:40:36.804Z,100.00
2022-10-01T01:43:06.597Z,100.00
2022-10-01T01:45:35.481Z,100.00
2022-10-01T01:48:03.006Z,100.00
2022-10-01T01:50:34.390Z,100.00
2022-10-01T01:53:02.135Z,100.00
2022-10-01T01:55:30.007Z,100.00
2022-10-01T01:57:57.629Z,100.00
2022-10-01T02:00:24.563Z,100.00
2022-10-01T02:02:53.644Z,100.00
2022-10-01T02:05:27.197Z,100.00
2022-10-01T02:08:25.802Z,100.00
2022-10-01T02:11:24.942Z,100.00
2022-10-01T02:14:01.123Z,100.00
2022-10-01T02:16:36.954Z,100.00
2022-10-01T02:19:07.072Z,100.00
2022-10-01T02:21:40.908Z,100.00
2022-10-01T02:24:22.547Z,100.00
2022-10-01T02:26:50.663Z,100.00
2022-10-01T02:29:20.066Z,100.00
2022-10-01T02:31:48.745Z,100.00
2022-10-01T02:34:20.086Z,100.00
2022-10-01T02:36:48.878Z,100.00
2022-10-01T02:39:16.616Z,100.00
2022-10-01T02:41:44.534Z,100.00
2022-10-01T02:44:21.247Z,100.00
2022-10-01T02:47:05.263Z,100.00
2022-10-01T02:49:32.378Z,100.00
2022-10-01T02:52:17.024Z,100.00
2022-10-01T02:54:52.057Z,100.00
2022-10-01T02:57:26.956Z,100.00
2022-10-01T02:59:57.700Z,100.00
2022-10-01T03:02:27.912Z,100.00
2022-10-01T03:04:55.647Z,100.00
2022-10-01T03:07:23.065Z,100.00
2022-10-01T03:09:49.977Z,100.00
2022-10-01T03:12:18.135Z,100.00
2022-10-01T03:14:45.689Z,100.00
2022-10-01T03:17:13.547Z,100.00
2022-10-01T03:19:40.802Z,100.00
2022-10-01T03:22:08.124Z,100.00
2022-10-01T03:24:34.990Z,100.00
2022-10-01T03:27:02.113Z,100.00
2022-10-01T03:29:28.960Z,100.00
2022-10-01T03:31:55.855Z,100.00
2022-10-01T03:34:23.466Z,100.00
2022-10-01T03:36:52.200Z,100.00
2022-10-01T03:39:19.538Z,100.00
2022-10-01T03:41:46.610Z,100.00
2022-10-01T03:44:13.510Z,100.00
2022-10-01T03:46:40.345Z,100.00
2022-10-01T03:49:07.556Z,100.00
2022-10-01T03:51:36.273Z,100.00
2022-10-01T03:54:04.791Z,100.00
2022-10-01T03:56:32.002Z,100.00
2022-10-01T03:58:59.029Z,100.00
2022-10-01T04:01:26.253Z,100.00
2022-10-01T04:03:53.800Z,100.00
2022-10-01T04:06:20.663Z,100.00
2022-10-01T04:08:47.529Z,100.00
2022-10-01T04:11:14.630Z,100.00
2022-10-01T04:13:41.486Z,100.00
2022-10-01T04:16:08.410Z,100.00
2022-10-01T04:18:35.673Z,100.00
2022-10-01T04:21:03.692Z,100.00
2022-10-01T04:23:30.590Z,100.00
2022-10-01T04:26:02.380Z,100.00
2022-10-01T04:28:30.119Z,100.00
2022-10-01T04:31:17.388Z,100.00
2022-10-01T04:33:45.004Z,100.00
2022-10-01T04:36:12.094Z,100.00
2022-10-01T04:38:38.980Z,100.00
2022-10-01T04:41:05.972Z,100.00
2022-10-01T04:43:33.194Z,100.00
2022-10-01T04:46:00.018Z,100.00
2022-10-01T04:48:26.998Z,100.00
2022-10-01T04:50:54.109Z,100.00
2022-10-01T04:53:23.720Z,100.00
2022-10-01T04:55:53.742Z,100.00
2022-10-01T04:58:20.814Z,100.00
2022-10-01T05:00:48.907Z,100.00
2022-10-01T05:03:16.254Z,100.00
2022-10-01T05:05:43.370Z,100.00
2022-10-01T05:08:10.358Z,100.00
2022-10-01T05:10:37.264Z,100.00
2022-10-01T05:13:04.358Z,100.00
2022-10-01T05:15:31.255Z,100.00
2022-10-01T05:17:58.114Z,100.00
2022-10-01T05:20:27.119Z,100.00
2022-10-01T05:22:54.848Z,100.00
2022-10-01T05:25:21.725Z,100.00
2022-10-01T05:27:48.892Z,100.00
2022-10-01T05:30:24.229Z,100.00
2022-10-01T05:32:56.372Z,100.00
2022-10-01T05:35:23.517Z,100.00
2022-10-01T05:37:54.745Z,100.00
2022-10-01T05:40:21.862Z,100.00
2022-10-01T05:42:48.710Z,100.00
2022-10-01T05:45:15.603Z,100.00
2022-10-01T05:47:44.452Z,100.00
2022-10-01T05:50:11.309Z,100.00
2022-10-01T05:52:38.548Z,100.00
2022-10-01T05:55:05.772Z,100.00
2022-10-01T05:57:33.134Z,100.00
2022-10-01T05:59:59.989Z,100.00
2022-10-01T06:02:27.218Z,100.00
2022-10-01T06:04:54.398Z,100.00
2022-10-01T06:07:21.257Z,100.00
2022-10-01T06:09:48.096Z,100.00
2022-10-01T06:12:19.732Z,100.00
2022-10-01T06:14:46.832Z,100.00
2022-10-01T06:17:13.675Z,100.00
2022-10-01T06:19:40.793Z,100.00
2022-10-01T06:22:07.642Z,100.00
2022-10-01T06:24:34.546Z,100.00
2022-10-01T06:27:01.637Z,100.00
2022-10-01T06:29:28.481Z,100.00
2022-10-01T06:31:55.448Z,100.00
2022-10-01T06:34:22.893Z,100.00
2022-10-01T06:36:49.736Z,100.00
2022-10-01T06:39:17.182Z,100.00
2022-10-01T06:41:44.298Z,100.00
2022-10-01T06:44:11.157Z,100.00
2022-10-01T06:46:37.993Z,100.00
2022-10-01T06:49:05.098Z,100.00
2022-10-01T06:51:50.230Z,100.00
2022-10-01T06:54:18.353Z,100.00
2022-10-01T06:56:45.194Z,100.00
2022-10-01T06:59:12.118Z,100.00
2022-10-01T07:01:39.471Z,100.00
2022-10-01T07:04:06.456Z,100.00
2022-10-01T07:06:33.293Z,100.00
2022-10-01T07:09:00.454Z,100.00
2022-10-01T07:11:27.333Z,100.00
2022-10-01T07:13:54.814Z,100.00
2022-10-01T07:16:22.123Z,100.00
2022-10-01T07:18:49.058Z,100.00
2022-10-01T07:21:15.912Z,100.00
2022-10-01T07:23:43.273Z,100.00
2022-10-01T07:26:10.319Z,100.00
2022-10-01T07:28:37.196Z,100.00
2022-10-01T07:31:07.955Z,100.00
2022-10-01T07:33:34.702Z,100.00
2022-10-01T07:36:04.000Z,100.00
2022-10-01T07:38:33.362Z,100.00
2022-10-01T07:41:02.497Z,100.00
2022-10-01T07:43:31.029Z,100.00
2022-10-01T07:46:00.129Z,100.00
2022-10-01T07:48:27.623Z,100.00
2022-10-01T07:50:54.544Z,100.00
2022-10-01T07:53:25.366Z,100.00
2022-10-01T07:55:54.870Z,100.00
2022-10-01T07:58:25.449Z,100.00
2022-10-01T08:00:58.518Z,100.00
2022-10-01T08:03:25.888Z,100.00
2022-10-01T08:05:56.747Z,100.00
2022-10-01T08:08:23.667Z,100.00
2022-10-01T08:10:50.940Z,100.00
2022-10-01T08:13:18.134Z,100.00
2022-10-01T08:15:47.010Z,100.00
2022-10-01T08:18:14.491Z,100.00
2022-10-01T08:20:41.617Z,100.00
2022-10-01T08:23:10.539Z,100.00
2022-10-01T08:25:39.228Z,100.00
2022-10-01T08:28:07.147Z,100.00
2022-10-01T08:30:35.797Z,100.00
2022-10-01T08:33:03.982Z,100.00
2022-10-01T08:35:31.368Z,100.00
2022-10-01T08:38:04.981Z,100.00
2022-10-01T08:40:39.379Z,100.00
2022-10-01T08:43:07.507Z,100.00
2022-10-01T08:45:44.695Z,100.00
2022-10-01T08:48:33.351Z,100.00
2022-10-01T08:51:19.666Z,100.00
2022-10-01T08:54:09.734Z,100.00
2022-10-01T08:56:40.038Z,100.00
2022-10-01T08:59:24.071Z,100.00
2022-10-01T09:01:55.455Z,100.00
2022-10-01T09:04:22.945Z,100.00
2022-10-01T09:06:55.151Z,100.00
2022-10-01T09:09:28.549Z,100.00
2022-10-01T09:12:35.625Z,100.00
2022-10-01T09:15:18.135Z,100.00
2022-10-01T09:17:59.744Z,100.00
2022-10-01T09:20:30.271Z,100.00
2022-10-01T09:23:15.289Z,100.00
2022-10-01T09:25:43.280Z,100.00
2022-10-01T09:28:14.048Z,100.00
2022-10-01T09:30:46.235Z,100.00
2022-10-01T09:33:18.737Z,100.00
2022-10-01T09:35:54.717Z,100.00
2022-10-01T09:38:45.211Z,100.00
2022-10-01T09:41:14.644Z,100.00
2022-10-01T09:43:43.911Z,100.00
2022-10-01T09:46:15.596Z,100.00
2022-10-01T09:49:12.872Z,100.00
2022-10-01T09:51:45.314Z,100.00
2022-10-01T09:54:27.763Z,100.00
2022-10-01T09:57:08.382Z,100.00
2022-10-01T09:59:43.505Z,97.45
2022-10-01T10:02:27.728Z,98.68
2022-10-01T10:05:01.776Z,97.93
2022-10-01T10:07:29.220Z,94.54
2022-10-01T10:09:56.369Z,93.64
2022-10-01T10:12:30.833Z,97.71
2022-10-01T10:15:07.001Z,95.54
2022-10-01T10:17:37.803Z,98.72
2022-10-01T10:20:11.953Z,98.43
2022-10-01T10:22:38.832Z,91.40
2022-10-01T10:25:17.621Z,91.64
2022-10-01T10:27:56.189Z,91.07
2022-10-01T10:30:27.179Z,92.99
2022-10-01T10:33:03.309Z,93.18
2022-10-01T10:35:31.326Z,92.21
2022-10-01T10:37:58.908Z,89.88
2022-10-01T10:40:29.707Z,91.69
2022-10-01T10:42:58.526Z,89.48
2022-10-01T10:45:33.986Z,89.00
2022-10-01T10:48:03.957Z,86.25
2022-10-01T10:50:36.557Z,85.78
2022-10-01T10:53:27.528Z,85.74
2022-10-01T10:56:05.868Z,84.79
2022-10-01T10:58:34.687Z,88.70
2022-10-01T11:01:09.135Z,91.17
2022-10-01T11:03:38.066Z,92.97
2022-10-01T11:06:12.882Z,94.11
2022-10-01T11:08:40.036Z,94.92
2022-10-01T11:11:13.120Z,93.74
2022-10-01T11:14:13.783Z,93.67
2022-10-01T11:17:20.026Z,92.55
2022-10-01T11:20:05.134Z,87.62
2022-10-01T11:22:52.618Z,89.17
2022-10-01T11:25:19.957Z,90.37
2022-10-01T11:28:05.389Z,88.64
2022-10-01T11:30:59.026Z,87.81
2022-10-01T11:33:48.894Z,90.48
2022-10-01T11:36:19.483Z,88.39
2022-10-01T11:39:01.812Z,88.11
2022-10-01T11:41:39.206Z,89.45
2022-10-01T11:44:24.558Z,92.20
2022-10-01T11:47:28.749Z,87.81
2022-10-01T11:49:59.773Z,89.93
2022-10-01T11:52:37.743Z,89.52
2022-10-01T11:55:28.705Z,89.50
2022-10-01T11:58:37.062Z,92.85
2022-10-01T12:01:13.608Z,92.46
2022-10-01T12:04:00.962Z,86.05
2022-10-01T12:06:39.970Z,85.68
2022-10-01T12:09:28.089Z,86.95
2022-10-01T12:12:01.308Z,84.93
2022-10-01T12:14:38.207Z,83.60
2022-10-01T12:17:13.319Z,84.06
2022-10-01T12:19:46.410Z,83.53
2022-10-01T12:22:34.653Z,82.67
2022-10-01T12:25:01.815Z,86.04
2022-10-01T12:27:39.879Z,89.34
2022-10-01T12:30:22.981Z,90.49
2022-10-01T12:33:31.307Z,90.87
2022-10-01T12:36:12.160Z,91.50
2022-10-01T12:39:00.350Z,93.68
2022-10-01T12:41:39.890Z,94.15
2022-10-01T12:44:21.931Z,94.40
2022-10-01T12:46:51.609Z,94.20
2022-10-01T12:49:31.748Z,94.80
2022-10-01T12:52:18.384Z,93.02
2022-10-01T12:54:59.959Z,94.57
2022-10-01T12:58:04.141Z,94.83
2022-10-01T13:00:36.121Z,91.51
2022-10-01T13:03:29.532Z,92.37
2022-10-01T13:06:19.028Z,91.52
2022-10-01T13:09:15.239Z,89.70
2022-10-01T13:12:19.523Z,89.71
2022-10-01T13:14:47.046Z,91.42
2022-10-01T13:17:22.954Z,90.15
2022-10-01T13:20:09.135Z,89.33
2022-10-01T13:22:47.311Z,89.07
2022-10-01T13:25:36.283Z,89.34
2022-10-01T13:28:15.653Z,89.06
2022-10-01T13:31:10.745Z,89.27
2022-10-01T13:33:38.156Z,89.55
2022-10-01T13:36:06.836Z,88.66
2022-10-01T13:38:44.429Z,89.41
2022-10-01T13:41:23.096Z,86.39
2022-10-01T13:44:04.750Z,90.29
2022-10-01T13:46:35.690Z,90.90
2022-10-01T13:49:15.662Z,95.59
2022-10-01T13:51:44.826Z,95.51
2022-10-01T13:54:22.700Z,95.26
2022-10-01T13:56:49.856Z,96.27
2022-10-01T13:59:36.299Z,98.94
2022-10-01T14:02:24.974Z,98.05
2022-10-01T14:04:52.305Z,97.80
2022-10-01T14:07:26.093Z,95.28
2022-10-01T14:09:55.354Z,97.27
2022-10-01T14:12:45.677Z,96.60
2022-10-01T14:15:58.134Z,99.14
2022-10-01T14:18:36.427Z,100.00
2022-10-01T14:21:15.811Z,100.00
2022-10-01T14:24:29.078Z,100.00
2022-10-01T14:27:01.569Z,100.00
2022-10-01T14:29:59.770Z,100.00
2022-10-01T14:32:40.695Z,100.00
2022-10-01T14:35:33.821Z,100.00
2022-10-01T14:38:03.722Z,100.00
2022-10-01T14:40:41.573Z,100.00
2022-10-01T14:43:29.046Z,100.00
2022-10-01T14:45:59.247Z,100.00
2022-10-01T14:48:28.967Z,100.00
2022-10-01T14:51:01.735Z,100.00
2022-10-01T14:53:32.150Z,100.00
2022-10-01T14:56:02.468Z,100.00
2022-10-01T14:58:36.082Z,100.00
2022-10-01T15:01:03.200Z,100.00
2022-10-01T15:03:40.797Z,100.00
2022-10-01T15:06:12.950Z,100.00
2022-10-01T15:08:42.139Z,100.00
2022-10-01T15:11:13.429Z,100.00
2022-10-01T15:13:43.189Z,100.00
2022-10-01T15:16:16.191Z,100.00
2022-10-01T15:18:53.499Z,100.00
2022-10-01T15:21:26.418Z,100.00
2022-10-01T15:23:53.846Z,100.00
2022-10-01T15:26:27.426Z,100.00
2022-10-01T15:29:12.660Z,100.00
2022-10-01T15:31:40.196Z,100.00
2022-10-01T15:34:11.749Z,100.00
2022-10-01T15:36:39.575Z,100.00
2022-10-01T15:39:27.966Z,100.00
2022-10-01T15:41:55.648Z,100.00
2022-10-01T15:44:45.509Z,100.00
2022-10-01T15:47:32.591Z,100.00
2022-10-01T15:50:02.396Z,100.00
2022-10-01T15:52:49.740Z,100.00
2022-10-01T15:55:22.331Z,100.00
2022-10-01T15:58:11.624Z,100.00
2022-10-01T16:00:48.752Z,100.00
2022-10-01T16:03:34.165Z,100.00
2022-10-01T16:06:02.521Z,100.00
2022-10-01T16:08:34.212Z,100.00
2022-10-01T16:11:13.118Z,100.00
2022-10-01T16:13:49.038Z,100.00
2022-10-01T16:16:26.157Z,100.00
2022-10-01T16:19:18.029Z,100.00
2022-10-01T16:22:31.787Z,100.00
2022-10-01T16:25:01.620Z,100.00
2022-10-01T16:27:32.067Z,100.00
2022-10-01T16:30:06.906Z,100.00
2022-10-01T16:32:34.268Z,100.00
2022-10-01T16:35:22.819Z,100.00
2022-10-01T16:37:51.382Z,100.00
2022-10-01T16:40:20.261Z,100.00
2022-10-01T16:42:49.322Z,100.00
2022-10-01T16:45:19.218Z,100.00
2022-10-01T16:47:46.385Z,100.00
2022-10-01T16:50:17.037Z,100.00
2022-10-01T16:52:44.202Z,100.00
2022-10-01T16:55:17.326Z,100.00
2022-10-01T16:57:44.517Z,100.00
2022-10-01T17:00:19.663Z,100.00
2022-10-01T17:02:46.535Z,100.00
2022-10-01T17:05:31.050Z,100.00
2022-10-01T17:08:00.854Z,100.00
2022-10-01T17:10:31.000Z,100.00
2022-10-01T17:12:59.490Z,100.00
2022-10-01T17:15:27.560Z,100.00
2022-10-01T17:17:55.711Z,100.00
2022-10-01T17:20:24.032Z,100.00
2022-10-01T17:22:51.742Z,100.00
2022-10-01T17:25:21.063Z,100.00
2022-10-01T17:27:48.555Z,100.00
2022-10-01T17:30:16.031Z,100.00
2022-10-01T17:32:43.430Z,100.00
2022-10-01T17:35:14.704Z,100.00
2022-10-01T17:37:42.322Z,100.00
2022-10-01T17:40:10.371Z,100.00
2022-10-01T17:42:37.215Z,100.00
2022-10-01T17:45:06.641Z,100.00
2022-10-01T17:47:33.848Z,100.00
2022-10-01T17:50:01.204Z,99.75
2022-10-01T17:52:28.046Z,98.14
2022-10-01T17:54:55.270Z,96.89
2022-10-01T17:57:22.155Z,96.05
2022-10-01T17:59:49.030Z,97.28
2022-10-01T18:02:39.771Z,99.01
2022-10-01T18:05:08.251Z,98.03
2022-10-01T18:07:39.012Z,98.73
2022-10-01T18:10:07.950Z,99.97
2022-10-01T18:12:34.814Z,100.00
2022-10-01T18:15:01.874Z,99.91
2022-10-01T18:17:29.263Z,98.07
2022-10-01T18:19:57.100Z,97.45
2022-10-01T18:22:24.094Z,97.41
2022-10-01T18:24:51.241Z,97.98
2022-10-01T18:27:18.076Z,96.48
2022-10-01T18:29:44.934Z,96.90
2022-10-01T18:32:24.265Z,97.36
2022-10-01T18:34:54.633Z,97.18
2022-10-01T18:37:37.658Z,97.07
2022-10-01T18:40:10.019Z,97.07
2022-10-01T18:42:53.705Z,97.52
2022-10-01T18:45:48.574Z,98.38
2022-10-01T18:48:42.261Z,97.58
2022-10-01T18:51:16.278Z,97.11
2022-10-01T18:53:55.349Z,96.22
2022-10-01T18:56:32.329Z,94.53
2022-10-01T18:59:21.574Z,93.49
2022-10-01T19:02:00.718Z,92.67
2022-10-01T19:04:36.826Z,92.26
2022-10-01T19:07:11.556Z,93.02
2022-10-01T19:09:53.807Z,92.48
2022-10-01T19:12:27.825Z,93.42
2022-10-01T19:15:14.383Z,94.77
2022-10-01T19:17:51.302Z,94.74
2022-10-01T19:20:47.086Z,95.07
2022-10-01T19:23:30.421Z,94.13
2022-10-01T19:26:21.633Z,96.01
2022-10-01T19:29:33.633Z,96.52
2022-10-01T19:32:03.250Z,97.27
2022-10-01T19:34:39.565Z,98.36
2022-10-01T19:37:16.350Z,98.18
2022-10-01T19:39:44.695Z,97.33
2022-10-01T19:42:19.110Z,98.57
2022-10-01T19:45:01.208Z,99.18
2022-10-01T19:47:51.151Z,100.00
2022-10-01T19:50:26.137Z,100.00
2022-10-01T19:52:56.446Z,100.00
2022-10-01T19:55:24.398Z,100.00
2022-10-01T19:57:52.634Z,100.00
2022-10-01T20:00:21.738Z,100.00
2022-10-01T20:03:33.291Z,100.00
2022-10-01T20:06:14.502Z,100.00
2022-10-01T20:08:55.520Z,100.00
2022-10-01T20:11:36.238Z,100.00
2022-10-01T20:14:35.964Z,100.00
2022-10-01T20:17:20.289Z,100.00
2022-10-01T20:20:33.657Z,100.00
2022-10-01T20:23:12.377Z,100.00
2022-10-01T20:25:57.773Z,100.00
2022-10-01T20:28:36.386Z,100.00
2022-10-01T20:31:11.785Z,100.00
2022-10-01T20:33:46.017Z,100.00
2022-10-01T20:36:20.987Z,100.00
2022-10-01T20:38:57.781Z,100.00
2022-10-01T20:41:28.139Z,100.00
2022-10-01T20:44:00.189Z,100.00
2022-10-01T20:46:38.218Z,100.00
2022-10-01T20:49:09.019Z,100.00
2022-10-01T20:51:41.089Z,100.00
2022-10-01T20:54:23.041Z,100.00
2022-10-01T20:57:30.502Z,100.00
2022-10-01T21:00:14.025Z,100.00
2022-10-01T21:02:48.953Z,100.00
2022-10-01T21:05:23.947Z,100.00
2022-10-01T21:07:57.991Z,100.00
2022-10-01T21:10:43.681Z,100.00
2022-10-01T21:13:37.143Z,100.00
2022-10-01T21:16:20.897Z,100.00
2022-10-01T21:18:58.125Z,100.00
2022-10-01T21:21:34.027Z,100.00
2022-10-01T21:24:13.159Z,100.00
2022-10-01T21:26:50.898Z,100.00
2022-10-01T21:29:29.997Z,100.00
2022-10-01T21:32:19.461Z,100.00
2022-10-01T21:35:07.426Z,100.00
2022-10-01T21:37:39.778Z,100.00
2022-10-01T21:40:25.475Z,100.00
2022-10-01T21:43:29.339Z,100.00
2022-10-01T21:46:15.023Z,100.00
2022-10-01T21:49:00.659Z,100.00
2022-10-01T21:51:55.176Z,100.00
2022-10-01T21:54:31.011Z,100.00
2022-10-01T21:57:35.908Z,100.00
2022-10-01T22:00:18.730Z,100.00
2022-10-01T22:03:19.696Z,100.00
2022-10-01T22:05:50.090Z,100.00
2022-10-01T22:08:35.633Z,100.00
2022-10-01T22:11:07.687Z,100.00
2022-10-01T22:13:37.300Z,100.00
2022-10-01T22:16:12.449Z,100.00
2022-10-01T22:18:45.544Z,100.00
2022-10-01T22:21:14.645Z,100.00
2022-10-01T22:23:46.682Z,100.00
2022-10-01T22:26:17.549Z,100.00
2022-10-01T22:28:48.702Z,100.00
2022-10-01T22:31:19.801Z,100.00
2022-10-01T22:34:15.217Z,100.00
2022-10-01T22:36:53.118Z,100.00
2022-10-01T22:39:23.767Z,100.00
2022-10-01T22:41:53.338Z,100.00
2022-10-01T22:44:22.195Z,100.00
2022-10-01T22:47:14.085Z,100.00
2022-10-01T22:49:46.089Z,100.00
2022-10-01T22:52:35.757Z,100.00
2022-10-01T22:55:27.842Z,100.00
2022-10-01T22:58:16.095Z,100.00
2022-10-01T23:01:00.618Z,100.00
2022-10-01T23:03:50.222Z,100.00
2022-10-01T23:06:43.350Z,100.00
2022-10-01T23:09:18.852Z,100.00
2022-10-01T23:12:00.479Z,100.00
2022-10-01T23:14:36.546Z,100.00
2022-10-01T23:17:08.333Z,100.00
2022-10-01T23:20:08.254Z,100.00
2022-10-01T23:22:44.564Z,100.00
2022-10-01T23:25:14.653Z,100.00
2022-10-01T23:28:00.617Z,100.00
2022-10-01T23:30:37.502Z,100.00
2022-10-01T23:33:55.935Z,100.00
2022-10-01T23:36:34.103Z,100.00
2022-10-01T23:39:16.421Z,100.00
2022-10-01T23:41:57.229Z,100.00
2022-10-01T23:44:40.219Z,100.00
2022-10-01T23:47:16.158Z,100.00
2022-10-01T23:49:50.515Z,100.00
2022-10-01T23:52:30.685Z,100.00
2022-10-01T23:55:23.188Z,100.00
2022-10-01T23:57:53.799Z,100.00
